Hlavní strana
METAR-TAF:

METAR-TAF

Letiště :

Waynesville Regional Airport at Forney Field

Fort Leonard Wood, Missouri, Spojené státy americké

zeměpisná šířka: 37-44N, zeměpisná délka: 092-08W, výška: 353 m

Aktuální stav počasí

Zpráva byla vytvořena před 13 minutami, v 11:07 UTC
Západní vítr 5 kt
Teplota 1°C
Vlhkost vzduchu 100%
Tlak 1008 hPa
Viditelnost: 16.1 km
Zataženo ve výšce 700 ft

METAR: KTBN 241107Z AUTO 26005KT 10SM OVC007 01/01 A2977 RMK AO2 DZE07 CIG 006 RWY33 SLP092 $

Čas: 05:20 (11:20 UTC)


TAF: chybějící

Stav a předpovědi počasí z více než 4 000 letišť (zprávy METAR a TAF).

Červené a žluté tečky na mapě představují dostupné meteorologické stanice.

Když kurzor umístíte na tečku, zobrazí se název stanice.

Pak kliknutím zobrazíte stav a předpověď počasí.

Chcete-li změnit mapu, kliknutím na zelené tlačítko se znaménkem +mapu přiblížíte, kliknutím na zelené tlačítko se znaménkem – mapu oddálíte a kliknutím na zelené šipky přejdete na sousední mapy.


METAR-TAF: